createdAt,value
2018-11-25T00:00:25.748Z,7.15
2018-11-25T00:02:56.176Z,7.14
2018-11-25T00:05:26.518Z,7.14
2018-11-25T00:07:57.129Z,7.15
2018-11-25T00:10:27.832Z,7.15
2018-11-25T00:12:58.620Z,7.16
2018-11-25T00:15:29.278Z,7.16
2018-11-25T00:17:59.928Z,7.19
2018-11-25T00:20:30.586Z,7.15
2018-11-25T00:23:01.186Z,7.13
2018-11-25T00:25:32.260Z,7.11
2018-11-25T00:28:02.972Z,7.08
2018-11-25T00:30:33.638Z,7.02
2018-11-25T00:33:04.327Z,6.95
2018-11-25T00:35:34.933Z,6.91
2018-11-25T00:38:06.113Z,6.88
2018-11-25T00:40:36.688Z,6.80
2018-11-25T00:43:07.800Z,6.75
2018-11-25T00:45:38.412Z,6.72
2018-11-25T00:48:09.120Z,6.69
2018-11-25T00:50:39.800Z,6.61
2018-11-25T00:53:10.930Z,6.58
2018-11-25T00:55:41.756Z,6.55
2018-11-25T00:58:12.701Z,6.50
2018-11-25T01:00:43.321Z,6.49
2018-11-25T01:03:13.961Z,6.45
2018-11-25T01:05:45.304Z,6.40
2018-11-25T01:08:15.884Z,6.37
2018-11-25T01:10:46.576Z,6.33
2018-11-25T01:13:17.208Z,6.32
2018-11-25T01:15:47.933Z,6.30
2018-11-25T01:18:18.563Z,6.25
2018-11-25T01:20:49.172Z,6.22
2018-11-25T01:23:19.856Z,6.19
2018-11-25T01:25:50.471Z,6.14
2018-11-25T01:28:21.613Z,6.11
2018-11-25T01:30:52.484Z,6.08
2018-11-25T01:33:23.156Z,6.06
2018-11-25T01:35:54.240Z,6.05
2018-11-25T01:38:25.129Z,6.01
2018-11-25T01:40:56.108Z,5.96
2018-11-25T01:43:26.692Z,5.95
2018-11-25T01:45:57.591Z,5.93
2018-11-25T01:48:28.241Z,5.88
2018-11-25T01:50:58.828Z,5.86
2018-11-25T01:53:30.743Z,5.84
2018-11-25T01:56:01.289Z,5.82
2018-11-25T01:58:31.973Z,5.80
2018-11-25T02:01:02.658Z,5.76
2018-11-25T02:03:33.903Z,5.75
2018-11-25T02:06:04.836Z,5.69
2018-11-25T02:08:35.472Z,5.64
2018-11-25T02:11:06.321Z,5.60
2018-11-25T02:13:37.560Z,5.59
2018-11-25T02:16:08.632Z,5.54
2018-11-25T02:18:39.493Z,5.47
2018-11-25T02:21:10.378Z,5.43
2018-11-25T02:23:41.256Z,5.41
2018-11-25T02:26:12.548Z,5.34
2018-11-25T02:28:43.186Z,5.31
2018-11-25T02:31:13.797Z,5.26
2018-11-25T02:33:44.731Z,5.26
2018-11-25T02:36:15.390Z,5.23
2018-11-25T02:38:46.230Z,5.18
2018-11-25T02:41:17.917Z,5.16
2018-11-25T02:43:48.896Z,5.11
2018-11-25T02:46:19.929Z,5.04
2018-11-25T02:48:51.691Z,5.04
2018-11-25T02:51:22.979Z,5.02
2018-11-25T02:53:53.887Z,5.01
2018-11-25T02:56:25.413Z,4.98
2018-11-25T02:58:56.395Z,4.95
2018-11-25T03:01:27.345Z,4.93
2018-11-25T03:03:58.572Z,4.90
2018-11-25T03:06:29.605Z,4.85
2018-11-25T03:09:00.788Z,4.82
2018-11-25T03:11:31.372Z,4.79
2018-11-25T03:14:02.230Z,4.78
2018-11-25T03:16:33.165Z,4.74
2018-11-25T03:19:04.533Z,4.72
2018-11-25T03:21:35.437Z,4.74
2018-11-25T03:24:07.292Z,4.71
2018-11-25T03:26:38.237Z,4.73
2018-11-25T03:29:09.382Z,4.71
2018-11-25T03:31:40.326Z,4.68
2018-11-25T03:34:11.249Z,4.66
2018-11-25T03:36:41.889Z,4.61
2018-11-25T03:39:12.832Z,4.57
2018-11-25T03:41:43.773Z,4.60
2018-11-25T03:44:14.792Z,4.59
2018-11-25T03:46:45.788Z,4.59
2018-11-25T03:49:16.829Z,4.58
2018-11-25T03:51:47.430Z,4.57
2018-11-25T03:54:18.668Z,4.57
2018-11-25T03:56:49.586Z,4.55
2018-11-25T03:59:20.541Z,4.50
2018-11-25T04:01:51.541Z,4.38
2018-11-25T04:04:22.417Z,4.29
2018-11-25T04:06:53.536Z,4.21
2018-11-25T04:09:24.500Z,4.14
2018-11-25T04:11:55.526Z,4.14
2018-11-25T04:14:26.544Z,4.14
2018-11-25T04:16:57.721Z,4.18
2018-11-25T04:19:28.653Z,4.19
2018-11-25T04:21:59.485Z,4.19
2018-11-25T04:24:30.417Z,4.19
2018-11-25T04:27:01.870Z,4.16
2018-11-25T04:29:32.805Z,4.11
2018-11-25T04:32:04.788Z,4.11
2018-11-25T04:34:35.840Z,4.07
2018-11-25T04:37:07.181Z,4.08
2018-11-25T04:39:38.173Z,4.05
2018-11-25T04:42:09.053Z,4.06
2018-11-25T04:44:39.964Z,4.02
2018-11-25T04:47:10.914Z,4.08
2018-11-25T04:49:42.030Z,4.07
2018-11-25T04:52:13.032Z,4.02
2018-11-25T04:54:43.976Z,4.00
2018-11-25T04:57:15.021Z,4.02
2018-11-25T04:59:46.128Z,3.99
2018-11-25T05:02:17.324Z,3.92
2018-11-25T05:04:48.945Z,3.92
2018-11-25T05:07:19.833Z,3.87
2018-11-25T05:09:51.214Z,3.78
2018-11-25T05:12:22.133Z,3.67
2018-11-25T05:14:53.020Z,3.60
2018-11-25T05:17:23.921Z,3.58
2018-11-25T05:19:54.833Z,3.51
2018-11-25T05:22:25.683Z,3.45
2018-11-25T05:24:57.272Z,3.36
2018-11-25T05:27:28.476Z,3.33
2018-11-25T05:29:59.409Z,3.30
2018-11-25T05:32:30.281Z,3.29
2018-11-25T05:35:01.148Z,3.33
2018-11-25T05:37:33.123Z,3.38
2018-11-25T05:40:04.676Z,3.32
2018-11-25T05:42:35.532Z,3.36
2018-11-25T05:45:10.696Z,3.29
2018-11-25T05:47:41.637Z,3.28
2018-11-25T05:50:14.417Z,3.29
2018-11-25T05:52:45.312Z,3.27
2018-11-25T05:55:16.295Z,3.25
2018-11-25T05:57:47.714Z,3.25
2018-11-25T06:00:22.921Z,3.19
2018-11-25T06:02:54.024Z,3.14
2018-11-25T06:05:24.943Z,3.06
2018-11-25T06:07:55.977Z,3.02
2018-11-25T06:10:27.496Z,2.94
2018-11-25T06:12:58.368Z,2.91
2018-11-25T06:15:29.264Z,2.95
2018-11-25T06:18:00.141Z,2.91
2018-11-25T06:20:31.060Z,2.85
2018-11-25T06:23:01.914Z,2.83
2018-11-25T06:25:32.832Z,2.81
2018-11-25T06:28:03.712Z,2.78
2018-11-25T06:30:34.805Z,2.75
2018-11-25T06:33:06.383Z,2.72
2018-11-25T06:35:37.308Z,2.77
2018-11-25T06:38:08.226Z,2.72
2018-11-25T06:40:39.081Z,2.68
2018-11-25T06:43:10.035Z,2.65
2018-11-25T06:45:41.216Z,2.63
2018-11-25T06:48:12.013Z,2.58
2018-11-25T06:50:43.258Z,2.53
2018-11-25T06:53:14.182Z,2.47
2018-11-25T06:55:45.038Z,2.42
2018-11-25T06:58:16.734Z,2.45
2018-11-25T07:00:48.781Z,2.46
2018-11-25T07:03:19.617Z,2.48
2018-11-25T07:05:50.546Z,2.46
2018-11-25T07:08:21.658Z,2.49
2018-11-25T07:10:52.600Z,2.55
2018-11-25T07:13:23.617Z,2.59
2018-11-25T07:15:54.460Z,2.59
2018-11-25T07:18:25.535Z,2.59
2018-11-25T07:20:56.485Z,2.61
2018-11-25T07:23:28.308Z,2.64
2018-11-25T07:25:59.235Z,2.62
2018-11-25T07:28:30.249Z,2.62
2018-11-25T07:31:01.953Z,2.67
2018-11-25T07:33:32.857Z,2.75
2018-11-25T07:36:04.101Z,2.81
2018-11-25T07:38:34.961Z,2.88
2018-11-25T07:41:06.139Z,2.90
2018-11-25T07:43:37.029Z,2.95
2018-11-25T07:46:08.346Z,2.99
2018-11-25T07:48:39.264Z,3.03
2018-11-25T07:51:10.313Z,3.05
2018-11-25T07:53:41.160Z,3.13
2018-11-25T07:56:12.117Z,3.20
2018-11-25T07:58:43.670Z,3.27
2018-11-25T08:01:14.623Z,3.33
2018-11-25T08:03:46.499Z,3.46
2018-11-25T08:06:17.629Z,3.51
2018-11-25T08:08:48.643Z,3.59
2018-11-25T08:11:19.509Z,3.64
2018-11-25T08:13:50.765Z,3.72
2018-11-25T08:16:21.704Z,3.75
2018-11-25T08:18:53.069Z,3.78
2018-11-25T08:21:24.469Z,3.79
2018-11-25T08:23:55.655Z,3.85
2018-11-25T08:26:26.568Z,3.90
2018-11-25T08:28:57.507Z,3.96
2018-11-25T08:31:28.393Z,4.04
2018-11-25T08:33:59.280Z,4.18
2018-11-25T08:36:30.643Z,4.37
2018-11-25T08:39:01.560Z,4.53
2018-11-25T08:41:32.184Z,4.67
2018-11-25T08:44:03.151Z,4.83
2018-11-25T08:46:34.124Z,5.00
2018-11-25T08:49:07.003Z,5.10
2018-11-25T08:51:37.654Z,5.20
2018-11-25T08:54:08.720Z,5.33
2018-11-25T08:56:40.056Z,5.41
2018-11-25T08:59:10.920Z,5.63
2018-11-25T09:01:41.865Z,5.75
2018-11-25T09:04:12.749Z,5.81
2018-11-25T09:06:43.725Z,6.01
2018-11-25T09:09:15.035Z,6.16
2018-11-25T09:11:46.178Z,6.23
2018-11-25T09:14:17.160Z,6.38
2018-11-25T09:16:48.002Z,6.52
2018-11-25T09:19:18.863Z,6.65
2018-11-25T09:21:49.572Z,6.73
2018-11-25T09:24:20.178Z,6.85
2018-11-25T09:26:51.039Z,7.00
2018-11-25T09:29:22.029Z,7.21
2018-11-25T09:31:52.807Z,7.35
2018-11-25T09:34:24.804Z,7.53
2018-11-25T09:36:55.574Z,7.66
2018-11-25T09:39:26.201Z,7.62
2018-11-25T09:41:57.277Z,7.64
2018-11-25T09:44:28.418Z,7.79
2018-11-25T09:46:59.531Z,7.96
2018-11-25T09:49:30.321Z,8.22
2018-11-25T09:52:00.968Z,8.45
2018-11-25T09:54:31.544Z,8.65
2018-11-25T09:57:03.353Z,8.78
2018-11-25T09:59:34.068Z,8.97
2018-11-25T10:02:06.341Z,9.20
2018-11-25T10:04:37.965Z,9.45
2018-11-25T10:07:08.581Z,9.51
2018-11-25T10:09:39.365Z,9.46
2018-11-25T10:12:10.097Z,9.63
2018-11-25T10:14:40.816Z,9.83
2018-11-25T10:17:11.410Z,9.97
2018-11-25T10:19:42.127Z,10.03
2018-11-25T10:22:12.896Z,9.84
2018-11-25T10:24:43.780Z,9.87
2018-11-25T10:27:14.383Z,9.98
2018-11-25T10:29:44.993Z,10.15
2018-11-25T10:32:15.593Z,10.32
2018-11-25T10:34:46.204Z,10.42
2018-11-25T10:37:16.876Z,10.52
2018-11-25T10:39:47.489Z,10.61
2018-11-25T10:42:18.147Z,10.71
2018-11-25T10:44:51.816Z,10.79
2018-11-25T10:47:22.839Z,10.92
2018-11-25T10:49:53.524Z,11.01
2018-11-25T10:52:24.269Z,11.08
2018-11-25T10:54:54.906Z,11.15
2018-11-25T10:57:25.527Z,11.26
2018-11-25T10:59:56.352Z,11.26
2018-11-25T11:02:32.154Z,11.27
2018-11-25T11:05:05.077Z,11.26
2018-11-25T11:07:41.605Z,11.29
2018-11-25T11:10:12.637Z,11.32
2018-11-25T11:12:43.458Z,11.33
2018-11-25T11:15:14.194Z,11.30
2018-11-25T11:17:44.876Z,11.33
2018-11-25T11:20:16.132Z,11.21
2018-11-25T11:22:46.901Z,11.19
2018-11-25T11:25:17.763Z,11.19
2018-11-25T11:27:50.849Z,11.22
2018-11-25T11:30:21.649Z,11.30
2018-11-25T11:32:52.533Z,11.39
2018-11-25T11:35:24.198Z,11.46
2018-11-25T11:37:54.786Z,11.47
2018-11-25T11:40:25.421Z,11.48
2018-11-25T11:42:56.433Z,11.60
2018-11-25T11:45:27.882Z,11.51
2018-11-25T11:47:58.466Z,11.49
2018-11-25T11:50:29.136Z,11.53
2018-11-25T11:52:59.891Z,11.46
2018-11-25T11:55:30.484Z,11.43
2018-11-25T11:58:01.345Z,11.34
2018-11-25T12:00:32.670Z,11.32
2018-11-25T12:03:03.348Z,11.24
2018-11-25T12:05:35.647Z,11.18
2018-11-25T12:08:07.177Z,11.18
2018-11-25T12:10:37.789Z,11.09
2018-11-25T12:13:08.416Z,11.10
2018-11-25T12:15:38.996Z,11.09
2018-11-25T12:18:09.756Z,11.04
2018-11-25T12:20:40.392Z,11.07
2018-11-25T12:23:11.101Z,10.98
2018-11-25T12:25:41.966Z,10.93
2018-11-25T12:28:12.815Z,10.94
2018-11-25T12:30:43.458Z,10.83
2018-11-25T12:33:14.157Z,10.82
2018-11-25T12:35:45.821Z,10.84
2018-11-25T12:38:16.436Z,10.86
2018-11-25T12:40:47.224Z,10.87
2018-11-25T12:43:18.018Z,10.80
2018-11-25T12:45:48.677Z,10.82
2018-11-25T12:48:19.467Z,10.85
2018-11-25T12:50:50.118Z,10.82
2018-11-25T12:53:21.248Z,10.92
2018-11-25T12:55:51.919Z,10.93
2018-11-25T12:58:23.279Z,10.96
2018-11-25T13:00:53.885Z,10.95
2018-11-25T13:03:24.649Z,10.89
2018-11-25T13:05:56.742Z,10.85
2018-11-25T13:08:27.457Z,10.90
2018-11-25T13:10:58.685Z,10.92
2018-11-25T13:13:29.506Z,10.84
2018-11-25T13:16:00.181Z,10.85
2018-11-25T13:18:31.038Z,10.81
2018-11-25T13:21:01.693Z,10.80
2018-11-25T13:23:32.546Z,10.80
2018-11-25T13:26:03.202Z,10.82
2018-11-25T13:28:33.851Z,10.87
2018-11-25T13:31:04.558Z,10.92
2018-11-25T13:33:35.378Z,10.93
2018-11-25T13:36:08.903Z,10.85
2018-11-25T13:38:39.889Z,10.74
2018-11-25T13:41:10.521Z,10.78
2018-11-25T13:43:41.228Z,10.75
2018-11-25T13:46:11.818Z,10.69
2018-11-25T13:48:42.974Z,10.69
2018-11-25T13:51:13.753Z,10.73
2018-11-25T13:53:44.626Z,10.76
2018-11-25T13:56:15.304Z,10.72
2018-11-25T13:58:45.970Z,10.68
2018-11-25T14:01:16.717Z,10.61
2018-11-25T14:03:47.418Z,10.48
2018-11-25T14:06:18.061Z,10.42
2018-11-25T14:08:53.453Z,10.29
2018-11-25T14:11:24.348Z,10.16
2018-11-25T14:13:54.940Z,9.96
2018-11-25T14:16:25.548Z,9.89
2018-11-25T14:18:56.265Z,9.83
2018-11-25T14:21:26.896Z,9.64
2018-11-25T14:23:57.597Z,9.54
2018-11-25T14:26:33.228Z,9.39
2018-11-25T14:29:05.340Z,9.22
2018-11-25T14:31:35.960Z,9.08
2018-11-25T14:34:06.961Z,8.96
2018-11-25T14:36:38.219Z,8.83
2018-11-25T14:39:12.578Z,8.67
2018-11-25T14:41:43.673Z,8.57
2018-11-25T14:44:14.626Z,8.54
2018-11-25T14:46:45.265Z,8.51
2018-11-25T14:49:16.006Z,8.42
2018-11-25T14:51:46.914Z,8.21
2018-11-25T14:54:18.089Z,8.01
2018-11-25T14:56:49.432Z,7.89
2018-11-25T14:59:20.177Z,7.64
2018-11-25T15:01:51.402Z,7.48
2018-11-25T15:04:22.190Z,7.11
2018-11-25T15:06:53.171Z,6.97
2018-11-25T15:09:24.796Z,6.79
2018-11-25T15:11:55.728Z,6.62
2018-11-25T15:14:26.596Z,6.47
2018-11-25T15:16:57.532Z,6.36
2018-11-25T15:19:28.330Z,6.35
2018-11-25T15:22:00.312Z,6.25
2018-11-25T15:24:31.189Z,6.19
2018-11-25T15:27:02.470Z,6.15
2018-11-25T15:29:33.363Z,6.18
2018-11-25T15:32:04.682Z,6.17
2018-11-25T15:34:35.584Z,6.07
2018-11-25T15:37:06.745Z,6.08
2018-11-25T15:39:37.861Z,6.09
2018-11-25T15:42:08.929Z,6.12
2018-11-25T15:44:39.670Z,6.20
2018-11-25T15:47:10.621Z,6.26
2018-11-25T15:49:41.552Z,6.28
2018-11-25T15:52:12.501Z,6.31
2018-11-25T15:54:43.523Z,6.38
2018-11-25T15:57:14.509Z,6.37
2018-11-25T15:59:45.552Z,6.43
2018-11-25T16:02:16.285Z,6.47
2018-11-25T16:04:47.968Z,6.50
2018-11-25T16:07:18.654Z,6.46
2018-11-25T16:09:49.509Z,6.52
2018-11-25T16:12:20.215Z,6.48
2018-11-25T16:14:51.027Z,6.50
2018-11-25T16:17:22.022Z,6.52
2018-11-25T16:19:52.908Z,6.46
2018-11-25T16:22:23.815Z,6.55
2018-11-25T16:24:55.236Z,6.65
2018-11-25T16:27:26.133Z,6.67
2018-11-25T16:29:57.804Z,6.76
2018-11-25T16:32:29.188Z,6.65
2018-11-25T16:34:59.853Z,6.66
2018-11-25T16:37:30.461Z,6.74
2018-11-25T16:40:01.918Z,6.78
2018-11-25T16:42:32.567Z,6.80
2018-11-25T16:45:03.254Z,6.80
2018-11-25T16:47:34.501Z,6.79
2018-11-25T16:50:07.607Z,6.86
2018-11-25T16:52:38.831Z,6.91
2018-11-25T16:55:11.505Z,6.78
2018-11-25T16:57:43.252Z,6.76
2018-11-25T17:00:19.624Z,6.65
2018-11-25T17:02:50.308Z,6.66
2018-11-25T17:05:27.818Z,6.70
2018-11-25T17:08:08.080Z,6.69
2018-11-25T17:10:39.583Z,6.68
2018-11-25T17:13:10.779Z,6.68
2018-11-25T17:15:42.063Z,6.70
2018-11-25T17:18:13.141Z,6.71
2018-11-25T17:20:43.797Z,6.74
2018-11-25T17:23:14.751Z,6.83
2018-11-25T17:25:45.538Z,6.82
2018-11-25T17:28:16.145Z,6.85
2018-11-25T17:30:47.126Z,6.89
2018-11-25T17:33:17.719Z,6.94
2018-11-25T17:35:48.344Z,6.96
2018-11-25T17:38:18.983Z,7.00
2018-11-25T17:40:49.656Z,6.98
2018-11-25T17:43:22.785Z,7.02
2018-11-25T17:45:53.696Z,6.99
2018-11-25T17:48:24.420Z,6.97
2018-11-25T17:50:55.462Z,6.91
2018-11-25T17:53:26.313Z,6.90
2018-11-25T17:55:57.023Z,6.88
2018-11-25T17:58:27.790Z,6.82
2018-11-25T18:01:00.884Z,6.81
2018-11-25T18:03:33.448Z,6.81
2018-11-25T18:06:04.066Z,6.82
2018-11-25T18:08:34.696Z,6.81
2018-11-25T18:11:06.308Z,6.70
2018-11-25T18:13:41.393Z,6.76
2018-11-25T18:16:13.700Z,6.72
2018-11-25T18:18:53.948Z,6.68
2018-11-25T18:21:26.870Z,6.67
2018-11-25T18:23:57.836Z,6.69
2018-11-25T18:26:28.762Z,6.70
2018-11-25T18:28:59.488Z,6.70
2018-11-25T18:31:30.497Z,6.70
2018-11-25T18:34:01.118Z,6.66
2018-11-25T18:36:32.348Z,6.65
2018-11-25T18:39:03.160Z,6.67
2018-11-25T18:41:33.782Z,6.70
2018-11-25T18:44:04.642Z,6.78
2018-11-25T18:46:35.332Z,6.80
2018-11-25T18:49:09.690Z,6.86
2018-11-25T18:51:40.464Z,6.93
2018-11-25T18:54:11.120Z,6.97
2018-11-25T18:56:41.869Z,6.92
2018-11-25T18:59:12.253Z,7.00
2018-11-25T19:01:56.558Z,7.03
2018-11-25T19:04:26.885Z,7.03
2018-11-25T19:06:58.356Z,7.03
2018-11-25T19:09:28.824Z,7.03
2018-11-25T19:12:00.077Z,7.04
2018-11-25T19:14:31.201Z,7.09
2018-11-25T19:17:01.941Z,7.13
2018-11-25T19:19:32.821Z,7.21
2018-11-25T19:22:03.873Z,7.25
2018-11-25T19:24:34.841Z,7.18
2018-11-25T19:27:05.900Z,7.18
2018-11-25T19:29:36.512Z,7.18
2018-11-25T19:32:09.666Z,7.17
2018-11-25T19:34:40.301Z,7.13
2018-11-25T19:37:10.957Z,7.11
2018-11-25T19:39:42.175Z,7.12
2018-11-25T19:42:13.711Z,6.96
2018-11-25T19:44:44.441Z,7.03
2018-11-25T19:47:25.100Z,6.99
2018-11-25T19:49:56.273Z,6.94
2018-11-25T19:52:27.332Z,6.94
2018-11-25T19:54:58.109Z,6.99
2018-11-25T19:57:29.175Z,6.75
2018-11-25T20:00:00.179Z,6.85
2018-11-25T20:02:32.059Z,6.81
2018-11-25T20:05:02.811Z,6.76
2018-11-25T20:07:33.567Z,6.72
2018-11-25T20:10:04.612Z,6.60
2018-11-25T20:12:43.663Z,6.51
2018-11-25T20:15:16.418Z,6.52
2018-11-25T20:17:54.034Z,6.59
2018-11-25T20:20:23.298Z,6.61
2018-11-25T20:22:54.883Z,6.63
2018-11-25T20:25:25.729Z,6.62
2018-11-25T20:27:57.080Z,6.66
2018-11-25T20:30:31.457Z,6.62
2018-11-25T20:33:07.310Z,6.59
2018-11-25T20:35:37.829Z,6.62
2018-11-25T20:38:14.104Z,6.52
2018-11-25T20:40:44.921Z,6.47
2018-11-25T20:43:16.945Z,6.46
2018-11-25T20:45:52.782Z,6.45
2018-11-25T20:48:23.941Z,6.41
2018-11-25T20:50:55.073Z,6.38
2018-11-25T20:53:31.182Z,6.42
2018-11-25T20:56:02.154Z,6.45
2018-11-25T20:58:33.505Z,6.47
2018-11-25T21:01:04.389Z,6.51
2018-11-25T21:03:35.305Z,6.51
2018-11-25T21:06:06.805Z,6.56
2018-11-25T21:08:37.763Z,6.56
2018-11-25T21:11:08.752Z,6.63
2018-11-25T21:13:39.452Z,6.67
2018-11-25T21:16:10.132Z,6.54
2018-11-25T21:18:41.081Z,6.48
2018-11-25T21:21:13.274Z,6.42
2018-11-25T21:23:44.296Z,6.46
2018-11-25T21:26:15.285Z,6.40
2018-11-25T21:28:46.051Z,6.43
2018-11-25T21:31:17.260Z,6.43
2018-11-25T21:33:48.540Z,6.45
2018-11-25T21:36:19.643Z,6.42
2018-11-25T21:38:50.389Z,6.34
2018-11-25T21:41:21.448Z,6.36
2018-11-25T21:43:54.326Z,6.40
2018-11-25T21:46:24.946Z,6.37
2018-11-25T21:48:55.689Z,6.40
2018-11-25T21:51:26.512Z,6.41
2018-11-25T21:53:57.604Z,6.42
2018-11-25T21:56:28.495Z,6.40
2018-11-25T21:58:59.570Z,6.45
2018-11-25T22:01:30.164Z,6.32
2018-11-25T22:04:01.212Z,6.32
2018-11-25T22:06:32.537Z,6.30
2018-11-25T22:09:04.401Z,6.28
2018-11-25T22:11:35.507Z,6.27
2018-11-25T22:14:06.743Z,6.30
2018-11-25T22:16:37.816Z,6.31
2018-11-25T22:19:09.073Z,6.32
2018-11-25T22:21:39.928Z,6.37
2018-11-25T22:24:10.848Z,6.34
2018-11-25T22:26:41.881Z,6.40
2018-11-25T22:29:12.841Z,6.37
2018-11-25T22:31:43.791Z,6.43
2018-11-25T22:34:14.501Z,6.56
2018-11-25T22:36:45.507Z,6.50
2018-11-25T22:39:16.392Z,6.48
2018-11-25T22:41:47.337Z,6.46
2018-11-25T22:44:17.969Z,6.46
2018-11-25T22:46:48.876Z,6.44
2018-11-25T22:49:19.881Z,6.44
2018-11-25T22:51:51.465Z,6.50
2018-11-25T22:54:22.110Z,6.48
2018-11-25T22:56:53.057Z,6.42
2018-11-25T22:59:24.060Z,6.41
2018-11-25T23:01:55.275Z,6.39
2018-11-25T23:04:44.153Z,6.41
2018-11-25T23:07:15.022Z,6.44
2018-11-25T23:09:45.656Z,6.54
2018-11-25T23:12:16.927Z,6.54
2018-11-25T23:14:47.549Z,6.56
2018-11-25T23:17:18.466Z,6.58
2018-11-25T23:19:49.291Z,6.64
2018-11-25T23:22:20.257Z,6.66
2018-11-25T23:24:51.784Z,6.69
2018-11-25T23:27:22.421Z,6.69
2018-11-25T23:29:53.020Z,6.74
2018-11-25T23:32:24.010Z,6.71
2018-11-25T23:34:54.909Z,6.78
2018-11-25T23:37:25.576Z,6.75
2018-11-25T23:39:57.280Z,6.74
2018-11-25T23:42:27.836Z,6.63
2018-11-25T23:44:58.489Z,6.61
2018-11-25T23:47:29.058Z,6.63
2018-11-25T23:50:00.056Z,6.62
2018-11-25T23:52:30.665Z,6.70
2018-11-25T23:55:01.518Z,6.70
2018-11-25T23:57:32.748Z,6.69
